createdAt,value
2023-04-27T00:02:22.971Z,7.73
2023-04-27T00:04:53.267Z,7.90
2023-04-27T00:07:26.601Z,7.67
2023-04-27T00:09:53.468Z,8.80
2023-04-27T00:12:22.765Z,8.37
2023-04-27T00:14:49.696Z,8.30
2023-04-27T00:17:17.728Z,7.97
2023-04-27T00:19:48.527Z,7.23
2023-04-27T00:22:15.991Z,7.93
2023-04-27T00:24:42.702Z,8.83
2023-04-27T00:27:13.425Z,8.93
2023-04-27T00:29:43.892Z,7.83
2023-04-27T00:32:11.629Z,8.27
2023-04-27T00:34:38.775Z,8.63
2023-04-27T00:37:05.698Z,9.43
2023-04-27T00:39:35.105Z,8.60
2023-04-27T00:42:02.070Z,11.13
2023-04-27T00:44:31.045Z,9.03
2023-04-27T00:46:59.014Z,8.90
2023-04-27T00:49:27.145Z,8.83
2023-04-27T00:51:56.293Z,9.70
2023-04-27T00:54:23.682Z,10.40
2023-04-27T00:56:51.754Z,9.97
2023-04-27T00:59:21.852Z,9.53
2023-04-27T01:01:49.907Z,10.60
2023-04-27T01:04:18.077Z,10.63
2023-04-27T01:06:45.657Z,10.70
2023-04-27T01:09:13.633Z,11.73
2023-04-27T01:11:40.713Z,9.33
2023-04-27T01:14:07.954Z,9.83
2023-04-27T01:16:35.351Z,9.57
2023-04-27T01:19:02.156Z,9.87
2023-04-27T01:21:29.927Z,9.50
2023-04-27T01:23:56.796Z,10.53
2023-04-27T01:26:24.843Z,11.43
2023-04-27T01:28:51.530Z,12.33
2023-04-27T01:31:24.192Z,11.27
2023-04-27T01:33:54.234Z,9.90
2023-04-27T01:36:24.112Z,11.67
2023-04-27T01:38:51.604Z,10.47
2023-04-27T01:41:20.599Z,11.70
2023-04-27T01:43:47.537Z,13.57
2023-04-27T01:46:20.671Z,13.23
2023-04-27T01:48:47.545Z,14.90
2023-04-27T01:51:15.149Z,13.33
2023-04-27T01:53:43.544Z,13.07
2023-04-27T01:56:10.434Z,14.33
2023-04-27T01:58:37.274Z,15.10
2023-04-27T02:01:04.331Z,15.17
2023-04-27T02:03:34.386Z,17.97
2023-04-27T02:06:02.502Z,13.00
2023-04-27T02:08:29.498Z,11.60
2023-04-27T02:10:56.206Z,9.03
2023-04-27T02:13:23.032Z,9.27
2023-04-27T02:15:49.971Z,8.57
2023-04-27T02:18:22.547Z,9.47
2023-04-27T02:20:49.292Z,8.87
2023-04-27T02:23:17.260Z,9.43
2023-04-27T02:25:47.097Z,7.90
2023-04-27T02:28:14.626Z,9.10
2023-04-27T02:30:45.162Z,9.60
2023-04-27T02:33:11.963Z,9.63
2023-04-27T02:35:40.104Z,9.77
2023-04-27T02:38:09.014Z,9.27
2023-04-27T02:40:35.918Z,10.67
2023-04-27T02:43:02.706Z,9.90
2023-04-27T02:45:31.664Z,10.10
2023-04-27T02:47:58.636Z,9.30
2023-04-27T02:50:26.692Z,9.80
2023-04-27T02:52:55.398Z,9.30
2023-04-27T02:55:22.441Z,8.73
2023-04-27T02:57:50.314Z,9.37
2023-04-27T03:00:18.967Z,9.57
2023-04-27T03:02:46.172Z,9.30
2023-04-27T03:05:13.000Z,10.07
2023-04-27T03:07:40.021Z,9.40
2023-04-27T03:10:08.381Z,9.10
2023-04-27T03:12:36.616Z,8.80
2023-04-27T03:15:06.104Z,8.93
2023-04-27T03:17:33.871Z,8.60
2023-04-27T03:20:00.810Z,8.67
2023-04-27T03:22:27.668Z,9.03
2023-04-27T03:24:54.489Z,8.80
2023-04-27T03:27:21.342Z,9.07
2023-04-27T03:29:53.590Z,9.67
2023-04-27T03:32:20.644Z,8.73
2023-04-27T03:34:47.451Z,8.87
2023-04-27T03:37:15.715Z,10.40
2023-04-27T03:39:45.189Z,9.37
2023-04-27T03:42:16.290Z,9.60
2023-04-27T03:44:43.016Z,9.40
2023-04-27T03:47:10.972Z,9.23
2023-04-27T03:49:38.905Z,8.77
2023-04-27T03:52:05.926Z,9.00
2023-04-27T03:54:32.910Z,9.50
2023-04-27T03:56:59.745Z,9.43
2023-04-27T03:59:30.089Z,10.10
2023-04-27T04:01:59.544Z,10.37
2023-04-27T04:04:28.220Z,10.43
2023-04-27T04:06:56.362Z,9.97
2023-04-27T04:09:24.200Z,11.10
2023-04-27T04:11:52.486Z,10.67
2023-04-27T04:14:20.395Z,10.87
2023-04-27T04:16:47.418Z,10.03
2023-04-27T04:19:15.511Z,10.57
2023-04-27T04:21:43.672Z,9.67
2023-04-27T04:24:11.126Z,9.30
2023-04-27T04:26:45.030Z,8.53
2023-04-27T04:29:14.107Z,8.07
2023-04-27T04:31:44.356Z,8.50
2023-04-27T04:34:11.311Z,8.80
2023-04-27T04:36:38.163Z,9.50
2023-04-27T04:39:05.725Z,9.43
2023-04-27T04:41:33.202Z,8.80
2023-04-27T04:44:01.210Z,9.37
2023-04-27T04:46:34.082Z,8.70
2023-04-27T04:49:02.468Z,11.03
2023-04-27T04:51:29.333Z,9.20
2023-04-27T04:53:56.613Z,13.33
2023-04-27T04:56:25.735Z,8.97
2023-04-27T04:58:52.600Z,8.00
2023-04-27T05:01:25.317Z,7.53
2023-04-27T05:03:53.310Z,9.33
2023-04-27T05:06:23.622Z,8.23
2023-04-27T05:08:50.423Z,8.53
2023-04-27T05:11:17.329Z,7.97
2023-04-27T05:13:44.210Z,8.50
2023-04-27T05:16:12.808Z,7.73
2023-04-27T05:18:39.659Z,8.17
2023-04-27T05:21:13.149Z,8.73
2023-04-27T05:23:40.981Z,9.20
2023-04-27T05:26:18.153Z,7.33
2023-04-27T05:28:47.076Z,8.10
2023-04-27T05:31:15.043Z,7.97
2023-04-27T05:33:43.978Z,7.93
2023-04-27T05:36:11.062Z,9.07
2023-04-27T05:38:40.321Z,8.60
2023-04-27T05:41:07.914Z,7.93
2023-04-27T05:43:40.825Z,8.47
2023-04-27T05:46:09.056Z,9.10
2023-04-27T05:48:36.193Z,8.73
2023-04-27T05:51:04.568Z,8.50
2023-04-27T05:53:33.745Z,8.67
2023-04-27T05:56:01.700Z,9.63
2023-04-27T05:58:31.988Z,8.67
2023-04-27T06:01:06.140Z,8.30
2023-04-27T06:03:33.516Z,8.17
2023-04-27T06:06:02.162Z,8.00
2023-04-27T06:08:29.795Z,9.37
2023-04-27T06:10:57.755Z,8.10
2023-04-27T06:13:27.013Z,8.87
2023-04-27T06:15:56.300Z,8.17
2023-04-27T06:18:23.213Z,8.17
2023-04-27T06:20:49.934Z,8.87
2023-04-27T06:23:17.972Z,9.13
2023-04-27T06:25:46.279Z,9.10
2023-04-27T06:28:13.001Z,9.47
2023-04-27T06:30:39.941Z,9.40
2023-04-27T06:33:06.699Z,9.97
2023-04-27T06:35:33.449Z,10.23
2023-04-27T06:38:00.863Z,9.93
2023-04-27T06:40:28.724Z,8.00
2023-04-27T06:42:55.503Z,8.63
2023-04-27T06:45:22.264Z,9.27
2023-04-27T06:47:49.024Z,8.53
2023-04-27T06:50:16.936Z,9.40
2023-04-27T06:52:43.779Z,9.90
2023-04-27T06:55:10.651Z,9.17
2023-04-27T06:57:38.487Z,8.73
2023-04-27T07:00:05.925Z,8.70
2023-04-27T07:02:32.733Z,8.93
2023-04-27T07:04:59.601Z,8.63
2023-04-27T07:07:26.408Z,9.47
2023-04-27T07:09:53.447Z,8.90
2023-04-27T07:12:20.322Z,7.83
2023-04-27T07:14:47.158Z,8.80
2023-04-27T07:17:13.862Z,7.97
2023-04-27T07:19:40.712Z,7.87
2023-04-27T07:22:07.450Z,9.10
2023-04-27T07:24:34.177Z,7.83
2023-04-27T07:27:03.687Z,8.17
2023-04-27T07:29:30.940Z,5.70
2023-04-27T07:31:58.941Z,8.40
2023-04-27T07:34:25.655Z,8.07
2023-04-27T07:36:54.550Z,7.83
2023-04-27T07:39:21.528Z,7.60
2023-04-27T07:41:48.469Z,7.77
2023-04-27T07:44:15.389Z,7.60
2023-04-27T07:46:42.352Z,5.90
2023-04-27T07:49:09.118Z,7.47
2023-04-27T07:51:36.353Z,6.13
2023-04-27T07:54:04.214Z,7.93
2023-04-27T07:56:31.085Z,8.60
2023-04-27T07:58:57.838Z,5.57
2023-04-27T08:01:24.906Z,5.73
2023-04-27T08:03:51.970Z,5.90
2023-04-27T08:06:19.793Z,6.23
2023-04-27T08:08:46.860Z,7.13
2023-04-27T08:11:13.727Z,5.60
2023-04-27T08:13:41.495Z,7.80
2023-04-27T08:16:08.313Z,6.27
2023-04-27T08:18:35.054Z,5.23
2023-04-27T08:21:01.818Z,6.53
2023-04-27T08:23:29.252Z,6.30
2023-04-27T08:25:56.046Z,5.60
2023-04-27T08:28:23.486Z,5.37
2023-04-27T08:30:50.513Z,4.70
2023-04-27T08:33:17.237Z,4.47
2023-04-27T08:35:43.950Z,4.40
2023-04-27T08:38:10.685Z,5.37
2023-04-27T08:40:43.519Z,5.20
2023-04-27T08:43:10.301Z,5.53
2023-04-27T08:45:37.585Z,6.10
2023-04-27T08:48:04.782Z,6.13
2023-04-27T08:50:31.589Z,7.13
2023-04-27T08:52:58.566Z,6.10
2023-04-27T08:55:25.655Z,13.63
2023-04-27T08:58:00.411Z,38.07
2023-04-27T09:00:27.840Z,14.53
2023-04-27T09:02:54.750Z,10.53
2023-04-27T09:05:23.738Z,7.53
2023-04-27T09:08:16.880Z,4.97
2023-04-27T09:10:49.005Z,4.33
2023-04-27T09:13:16.264Z,4.17
2023-04-27T09:15:48.674Z,4.43
2023-04-27T09:18:17.685Z,7.57
2023-04-27T09:20:49.190Z,5.53
2023-04-27T09:23:31.675Z,5.43
2023-04-27T09:26:00.100Z,4.90
2023-04-27T09:28:28.360Z,4.83
2023-04-27T09:30:56.480Z,6.03
2023-04-27T09:33:31.276Z,4.03
2023-04-27T09:36:00.546Z,3.93
2023-04-27T09:38:27.548Z,3.87
2023-04-27T09:40:54.928Z,6.30
2023-04-27T09:43:24.062Z,3.75
2023-04-27T09:45:51.571Z,3.53
2023-04-27T09:48:18.844Z,4.47
2023-04-27T09:50:46.930Z,4.60
2023-04-27T09:53:20.846Z,5.43
2023-04-27T09:56:02.496Z,4.50
2023-04-27T09:59:10.670Z,5.13
2023-04-27T10:01:43.723Z,5.50
2023-04-27T10:04:20.554Z,5.23
2023-04-27T10:07:01.276Z,6.43
2023-04-27T10:09:35.716Z,6.07
2023-04-27T10:12:27.514Z,4.80
2023-04-27T10:14:56.448Z,6.60
2023-04-27T10:17:33.881Z,4.17
2023-04-27T10:20:02.038Z,5.20
2023-04-27T10:22:46.276Z,5.00
2023-04-27T10:25:25.554Z,5.43
2023-04-27T10:27:58.884Z,11.87
2023-04-27T10:30:37.819Z,6.20
2023-04-27T10:33:09.437Z,6.03
2023-04-27T10:35:39.219Z,4.93
2023-04-27T10:38:14.889Z,5.67
2023-04-27T10:40:43.756Z,4.10
2023-04-27T10:43:14.647Z,4.60
2023-04-27T10:45:42.468Z,8.30
2023-04-27T10:48:12.932Z,6.93
2023-04-27T10:50:40.497Z,5.77
2023-04-27T10:53:08.674Z,9.27
2023-04-27T10:55:36.151Z,6.13
2023-04-27T10:58:04.540Z,7.47
2023-04-27T11:00:37.602Z,10.00
2023-04-27T11:03:14.928Z,17.60
2023-04-27T11:05:46.836Z,23.37
2023-04-27T11:08:16.782Z,18.20
2023-04-27T11:10:50.007Z,9.80
2023-04-27T11:13:24.941Z,4.63
2023-04-27T11:15:57.815Z,3.67
2023-04-27T11:18:31.821Z,2.90
2023-04-27T11:21:18.848Z,2.97
2023-04-27T11:23:46.149Z,2.67
2023-04-27T11:26:18.191Z,2.70
2023-04-27T11:29:05.461Z,2.20
2023-04-27T11:31:51.181Z,2.33
2023-04-27T11:34:27.383Z,3.20
2023-04-27T11:37:17.325Z,2.37
2023-04-27T11:39:45.851Z,2.90
2023-04-27T11:42:20.975Z,2.63
2023-04-27T11:45:02.431Z,3.27
2023-04-27T11:47:31.552Z,2.70
2023-04-27T11:50:01.753Z,2.33
2023-04-27T11:52:36.321Z,2.50
2023-04-27T11:55:05.015Z,2.80
2023-04-27T11:57:36.067Z,2.80
2023-04-27T12:00:11.331Z,2.38
2023-04-27T12:02:42.138Z,2.37
2023-04-27T12:05:13.166Z,2.67
2023-04-27T12:07:42.226Z,2.95
2023-04-27T12:10:11.844Z,2.33
2023-04-27T12:12:38.806Z,2.80
2023-04-27T12:15:07.369Z,2.70
2023-04-27T12:17:34.284Z,2.92
2023-04-27T12:20:01.087Z,3.05
2023-04-27T12:22:28.833Z,2.95
2023-04-27T12:24:56.025Z,2.72
2023-04-27T12:27:23.360Z,2.67
2023-04-27T12:29:50.238Z,3.40
2023-04-27T12:32:17.132Z,2.30
2023-04-27T12:34:44.202Z,2.03
2023-04-27T12:37:12.219Z,1.60
2023-04-27T12:39:39.951Z,2.03
2023-04-27T12:42:06.821Z,2.28
2023-04-27T12:44:34.597Z,2.47
2023-04-27T12:47:02.526Z,2.53
2023-04-27T12:49:29.485Z,2.33
2023-04-27T12:51:58.031Z,2.17
2023-04-27T12:54:25.012Z,2.08
2023-04-27T12:56:52.330Z,2.13
2023-04-27T12:59:19.315Z,3.22
2023-04-27T13:01:46.318Z,2.15
2023-04-27T13:04:21.166Z,2.43
2023-04-27T13:06:48.808Z,2.42
2023-04-27T13:09:17.062Z,1.87
2023-04-27T13:11:44.008Z,2.13
2023-04-27T13:14:13.144Z,2.50
2023-04-27T13:16:41.733Z,2.10
2023-04-27T13:19:08.913Z,2.10
2023-04-27T13:21:35.726Z,2.60
2023-04-27T13:24:04.147Z,2.00
2023-04-27T13:26:32.218Z,2.10
2023-04-27T13:28:59.131Z,2.43
2023-04-27T13:31:26.196Z,2.57
2023-04-27T13:33:53.843Z,2.73
2023-04-27T13:36:21.608Z,2.77
2023-04-27T13:38:49.557Z,2.87
2023-04-27T13:41:16.819Z,2.60
2023-04-27T13:43:44.729Z,2.80
2023-04-27T13:46:13.792Z,2.40
2023-04-27T13:48:42.598Z,2.55
2023-04-27T13:51:10.180Z,2.50
2023-04-27T13:53:37.178Z,3.33
2023-04-27T13:56:04.237Z,2.38
2023-04-27T13:58:32.255Z,3.17
2023-04-27T14:01:00.391Z,2.35
2023-04-27T14:03:29.913Z,3.40
2023-04-27T14:05:57.921Z,2.90
2023-04-27T14:08:24.796Z,2.50
2023-04-27T14:10:51.616Z,2.83
2023-04-27T14:13:18.781Z,3.03
2023-04-27T14:15:46.856Z,2.47
2023-04-27T14:18:13.781Z,3.33
2023-04-27T14:20:42.182Z,2.83
2023-04-27T14:23:11.602Z,4.40
2023-04-27T14:25:39.900Z,2.42
2023-04-27T14:28:06.830Z,2.67
2023-04-27T14:30:35.860Z,3.17
2023-04-27T14:33:03.176Z,2.53
2023-04-27T14:35:30.401Z,2.80
2023-04-27T14:38:02.450Z,3.30
2023-04-27T14:40:30.506Z,3.45
2023-04-27T14:42:58.830Z,2.60
2023-04-27T14:45:30.918Z,2.90
2023-04-27T14:48:04.173Z,3.88
2023-04-27T14:50:32.500Z,3.50
2023-04-27T14:52:59.409Z,3.42
2023-04-27T14:55:26.743Z,2.75
2023-04-27T14:57:53.664Z,3.97
2023-04-27T15:00:20.697Z,3.10
2023-04-27T15:02:53.757Z,4.07
2023-04-27T15:05:20.711Z,4.13
2023-04-27T15:07:47.561Z,3.73
2023-04-27T15:10:14.274Z,4.17
2023-04-27T15:12:41.834Z,3.87
2023-04-27T15:15:10.332Z,4.07
2023-04-27T15:17:37.733Z,4.57
2023-04-27T15:20:05.916Z,4.50
2023-04-27T15:22:32.955Z,3.17
2023-04-27T15:24:59.843Z,5.07
2023-04-27T15:27:26.999Z,5.03
2023-04-27T15:29:54.979Z,3.97
2023-04-27T15:32:24.576Z,3.80
2023-04-27T15:34:51.889Z,3.20
2023-04-27T15:37:18.857Z,4.23
2023-04-27T15:39:45.744Z,3.50
2023-04-27T15:42:12.432Z,3.97
2023-04-27T15:44:39.178Z,4.63
2023-04-27T15:47:06.416Z,7.80
2023-04-27T15:49:39.912Z,7.10
2023-04-27T15:52:13.017Z,8.40
2023-04-27T15:54:39.870Z,11.07
2023-04-27T15:57:06.667Z,17.40
2023-04-27T15:59:33.448Z,9.47
2023-04-27T16:02:00.223Z,5.03
2023-04-27T16:04:27.113Z,4.80
2023-04-27T16:06:54.622Z,4.33
2023-04-27T16:09:22.884Z,5.60
2023-04-27T16:11:49.665Z,5.37
2023-04-27T16:14:16.644Z,5.13
2023-04-27T16:16:43.552Z,5.40
2023-04-27T16:19:10.359Z,5.20
2023-04-27T16:21:37.138Z,5.60
2023-04-27T16:24:03.978Z,6.77
2023-04-27T16:26:32.914Z,7.10
2023-04-27T16:28:59.657Z,6.60
2023-04-27T16:31:26.454Z,7.07
2023-04-27T16:33:53.573Z,6.93
2023-04-27T16:36:22.638Z,6.80
2023-04-27T16:38:49.350Z,6.07
2023-04-27T16:41:16.098Z,6.00
2023-04-27T16:43:42.787Z,5.30
2023-04-27T16:46:10.666Z,7.17
2023-04-27T16:48:37.516Z,6.07
2023-04-27T16:51:04.481Z,6.67
2023-04-27T16:53:31.292Z,6.43
2023-04-27T16:56:01.330Z,6.13
2023-04-27T16:58:33.371Z,6.00
2023-04-27T17:01:00.268Z,5.87
2023-04-27T17:03:27.254Z,5.30
2023-04-27T17:05:54.128Z,11.67
2023-04-27T17:08:20.956Z,4.00
2023-04-27T17:10:47.723Z,5.13
2023-04-27T17:13:16.406Z,5.17
2023-04-27T17:15:43.226Z,4.50
2023-04-27T17:18:10.484Z,5.07
2023-04-27T17:20:38.787Z,6.17
2023-04-27T17:23:07.018Z,6.30
2023-04-27T17:25:33.732Z,5.93
2023-04-27T17:28:01.689Z,5.17
2023-04-27T17:30:28.683Z,5.70
2023-04-27T17:32:55.388Z,5.23
2023-04-27T17:35:22.249Z,5.90
2023-04-27T17:37:49.031Z,7.00
2023-04-27T17:40:20.551Z,9.17
2023-04-27T17:42:47.667Z,11.03
2023-04-27T17:45:14.748Z,10.90
2023-04-27T17:47:41.517Z,9.00
2023-04-27T17:50:09.396Z,8.17
2023-04-27T17:52:36.101Z,8.57
2023-04-27T17:55:03.003Z,8.90
2023-04-27T17:57:29.758Z,8.97
2023-04-27T17:59:56.456Z,8.50
2023-04-27T18:02:23.390Z,10.53
2023-04-27T18:04:50.245Z,10.90
2023-04-27T18:07:19.265Z,11.60
2023-04-27T18:09:45.988Z,11.20
2023-04-27T18:12:12.905Z,11.27
2023-04-27T18:14:39.671Z,11.33
2023-04-27T18:17:06.501Z,15.17
2023-04-27T18:19:33.421Z,12.43
2023-04-27T18:22:00.390Z,13.40
2023-04-27T18:24:27.114Z,14.03
2023-04-27T18:26:53.821Z,14.43
2023-04-27T18:29:20.602Z,12.80
2023-04-27T18:31:47.545Z,11.07
2023-04-27T18:34:14.475Z,10.57
2023-04-27T18:36:41.233Z,9.83
2023-04-27T18:39:08.167Z,10.93
2023-04-27T18:41:34.870Z,8.87
2023-04-27T18:44:05.767Z,11.00
2023-04-27T18:46:33.517Z,12.53
2023-04-27T18:49:01.267Z,13.33
2023-04-27T18:51:28.837Z,13.63
2023-04-27T18:53:56.143Z,14.83
2023-04-27T18:56:22.966Z,14.10
2023-04-27T18:58:50.011Z,14.13
2023-04-27T19:01:22.130Z,22.73
2023-04-27T19:03:49.455Z,25.77
2023-04-27T19:06:18.783Z,37.87
2023-04-27T19:08:46.479Z,24.30
2023-04-27T19:11:16.556Z,19.93
2023-04-27T19:13:45.117Z,18.37
2023-04-27T19:16:12.708Z,19.70
2023-04-27T19:18:40.637Z,20.97
2023-04-27T19:21:09.957Z,20.83
2023-04-27T19:23:36.901Z,21.40
2023-04-27T19:26:12.375Z,19.70
2023-04-27T19:28:40.228Z,20.47
2023-04-27T19:31:07.632Z,23.27
2023-04-27T19:33:34.553Z,23.40
2023-04-27T19:36:01.505Z,26.07
2023-04-27T19:38:28.493Z,24.87
2023-04-27T19:40:55.327Z,22.37
2023-04-27T19:43:22.367Z,21.07
2023-04-27T19:45:49.507Z,22.47
2023-04-27T19:48:16.612Z,20.93
2023-04-27T19:50:44.455Z,19.30
2023-04-27T19:53:11.411Z,20.83
2023-04-27T19:55:40.484Z,19.00
2023-04-27T19:58:07.538Z,18.20
2023-04-27T20:00:34.476Z,16.93
2023-04-27T20:03:02.665Z,16.47
2023-04-27T20:05:29.924Z,16.37
2023-04-27T20:07:56.819Z,15.30
2023-04-27T20:10:23.753Z,13.87
2023-04-27T20:12:56.537Z,15.57
2023-04-27T20:15:24.394Z,14.73
2023-04-27T20:17:51.917Z,12.20
2023-04-27T20:20:19.305Z,12.40
2023-04-27T20:22:46.147Z,14.13
2023-04-27T20:25:14.610Z,12.90
2023-04-27T20:27:42.042Z,12.70
2023-04-27T20:30:10.315Z,12.17
2023-04-27T20:32:39.443Z,12.27
2023-04-27T20:35:11.582Z,12.63
2023-04-27T20:37:40.069Z,11.80
2023-04-27T20:40:12.564Z,11.40
2023-04-27T20:42:40.858Z,11.67
2023-04-27T20:45:11.280Z,11.40
2023-04-27T20:47:38.262Z,11.87
2023-04-27T20:50:06.363Z,10.50
2023-04-27T20:52:34.591Z,10.27
2023-04-27T20:55:05.356Z,11.13
2023-04-27T20:57:32.493Z,10.97
2023-04-27T20:59:59.510Z,11.77
2023-04-27T21:02:26.528Z,13.23
2023-04-27T21:04:53.617Z,13.03
2023-04-27T21:07:20.945Z,12.90
2023-04-27T21:09:47.904Z,13.83
2023-04-27T21:12:17.156Z,12.50
2023-04-27T21:14:44.458Z,12.50
2023-04-27T21:17:15.108Z,12.67
2023-04-27T21:19:42.217Z,11.53
2023-04-27T21:22:09.180Z,12.50
2023-04-27T21:24:36.281Z,12.60
2023-04-27T21:27:03.471Z,11.57
2023-04-27T21:29:30.492Z,12.50
2023-04-27T21:31:57.310Z,11.87
2023-04-27T21:34:24.182Z,12.70
2023-04-27T21:36:51.044Z,11.60
2023-04-27T21:39:23.772Z,11.43
2023-04-27T21:41:51.875Z,12.07
2023-04-27T21:44:18.655Z,12.50
2023-04-27T21:46:46.781Z,12.40
2023-04-27T21:49:13.820Z,14.97
2023-04-27T21:51:40.776Z,14.83
2023-04-27T21:54:07.819Z,14.70
2023-04-27T21:56:35.620Z,16.23
2023-04-27T21:59:02.456Z,16.87
2023-04-27T22:01:34.548Z,15.70
2023-04-27T22:04:04.140Z,17.00
2023-04-27T22:06:33.427Z,15.97
2023-04-27T22:09:00.884Z,16.90
2023-04-27T22:11:27.703Z,21.80
2023-04-27T22:13:56.645Z,20.33
2023-04-27T22:16:30.794Z,17.90
2023-04-27T22:18:57.899Z,17.93
2023-04-27T22:21:25.068Z,17.60
2023-04-27T22:23:53.113Z,23.33
2023-04-27T22:26:20.149Z,18.73
2023-04-27T22:28:47.960Z,17.53
2023-04-27T22:31:17.867Z,13.60
2023-04-27T22:33:44.720Z,14.57
2023-04-27T22:36:12.085Z,12.10
2023-04-27T22:38:39.178Z,12.27
2023-04-27T22:41:06.086Z,11.73
2023-04-27T22:43:33.027Z,13.20
2023-04-27T22:46:01.012Z,12.20
2023-04-27T22:48:30.133Z,11.87
2023-04-27T22:50:58.072Z,11.60
2023-04-27T22:53:26.245Z,13.17
2023-04-27T22:55:53.198Z,13.30
2023-04-27T22:58:21.016Z,13.17
2023-04-27T23:00:50.009Z,13.40
2023-04-27T23:03:18.387Z,11.80
2023-04-27T23:05:53.621Z,12.63
2023-04-27T23:08:24.816Z,12.67
2023-04-27T23:10:56.233Z,12.90
2023-04-27T23:13:29.993Z,11.60
2023-04-27T23:15:58.963Z,11.80
2023-04-27T23:18:25.884Z,11.47
2023-04-27T23:20:54.712Z,12.63
2023-04-27T23:23:22.158Z,12.17
2023-04-27T23:25:49.313Z,11.37
2023-04-27T23:28:16.668Z,12.40
2023-04-27T23:30:55.277Z,11.37
2023-04-27T23:33:24.356Z,11.97
2023-04-27T23:35:51.478Z,12.10
2023-04-27T23:38:19.307Z,12.33
2023-04-27T23:40:47.066Z,12.63
2023-04-27T23:43:13.914Z,12.53
2023-04-27T23:45:40.893Z,10.70
2023-04-27T23:48:09.060Z,13.30
2023-04-27T23:50:35.991Z,12.10
2023-04-27T23:53:03.817Z,11.90
2023-04-27T23:55:34.868Z,12.60
2023-04-27T23:58:01.969Z,12.47
